Newcastle, United Kingdom
Current Conditions -  °F | °C
As of 5:50 PM on Friday 21 Nov 2014 (Local Time) from EGNT Reporting Station
Light Rain Light Rain  
Wind Chill: 41°   Ceiling: Unl
Heat Index: 46°   Visibility: 4mi
Dew Point: 45°   Wind: 10mph
Humidity: 93%   Direction: 140°SE
Pressure: 29.94"   Gusts: NA
Location:  54.98°N, 1.61°W
Report Text: EGNT 211750Z 14009KT 110V190 7000 -RA SCT030 08/07 Q1014
Loading
Personal Weather Stations






























Interactive Weather Map New forecast layout! Learn more

10-Day Weather Forecast

Advertisements
Track Severe Weather on mobile